Time;durP1;ratioP1;P1;durP2;ratioP2;P2;SDS_P1;SDS_P2;PMS_P1;PMS_P2;Temp;Humidity;BMP_temperature;BMP_pressure;BME280_temperature;BME280_humidity;BME280_pressure;Samples;Min_cycle;Max_cycle;Signal;HPM_P1;HPM_P2
2021/12/15 00:01:04;;;;;;;13.00;7.20;;;;;;;;;;4953775;28;20513;-71
2021/12/15 00:03:31;;;;;;;11.15;6.70;;;;;;;;;;4954977;28;20036;-70
2021/12/15 00:05:58;;;;;;;9.13;6.80;;;;;;;;;;4953677;28;20031;-70
2021/12/15 00:08:24;;;;;;;14.35;8.85;;;;;;;;;;4960224;28;20110;-71
2021/12/15 00:10:52;;;;;;;12.63;7.70;;;;;;;;;;4974159;28;20564;-71
2021/12/15 00:13:20;;;;;;;11.00;6.63;;;;;;;;;;4973696;28;20062;-70
2021/12/15 00:15:47;;;;;;;13.50;7.13;;;;;;;;;;4973700;28;20106;-68
2021/12/15 00:18:14;;;;;;;9.93;6.40;;;;;;;;;;4980034;28;20034;-68
2021/12/15 00:20:40;;;;;;;9.20;6.82;;;;;;;;;;5075515;28;20471;-69
2021/12/15 00:23:06;;;;;;;11.68;7.05;;;;;;;;;;5075719;28;20071;-68
2021/12/15 00:25:34;;;;;;;11.75;7.88;;;;;;;;;;5075210;28;20498;-68
2021/12/15 00:28:00;;;;;;;10.65;7.10;;;;;;;;;;5075697;28;20024;-72
2021/12/15 00:30:27;;;;;;;10.65;7.10;;;;;;;;;;5073505;28;20435;-72
2021/12/15 00:32:53;;;;;;;8.75;7.10;;;;;;;;;;5022502;28;20034;-67
2021/12/15 00:35:21;;;;;;;8.57;7.18;;;;;;;;;;4954559;28;20039;-70
2021/12/15 00:37:47;;;;;;;12.05;6.95;;;;;;;;;;4954749;28;20019;-72
2021/12/15 00:40:15;;;;;;;9.48;7.00;;;;;;;;;;4954696;28;20077;-70
2021/12/15 00:42:41;;;;;;;8.13;6.88;;;;;;;;;;4954628;28;20031;-72
2021/12/15 00:45:08;;;;;;;10.63;5.85;;;;;;;;;;4956206;28;20033;-81
2021/12/15 00:47:34;;;;;;;10.38;6.72;;;;;;;;;;4955541;28;20383;-69
2021/12/15 00:50:06;;;;;;;10.75;7.07;;;;;;;;;;4953833;28;20463;-73
2021/12/15 00:52:32;;;;;;;9.45;6.70;;;;;;;;;;5015240;28;20021;-69
2021/12/15 00:54:58;;;;;;;10.07;6.93;;;;;;;;;;5073633;28;20392;-67
2021/12/15 00:57:24;;;;;;;11.50;7.68;;;;;;;;;;5074863;28;20464;-73
2021/12/15 00:59:50;;;;;;;9.48;6.82;;;;;;;;;;5075326;28;20027;-72
2021/12/15 01:02:17;;;;;;;11.52;6.97;;;;;;;;;;5074245;28;20035;-74
2021/12/15 01:04:43;;;;;;;9.57;6.35;;;;;;;;;;5006669;28;20544;-71
2021/12/15 01:07:10;;;;;;;8.60;6.68;;;;;;;;;;4973575;28;20027;-72
2021/12/15 01:09:41;;;;;;;7.82;6.05;;;;;;;;;;4957769;28;20023;-72
2021/12/15 01:12:23;;;;;;;9.65;6.68;;;;;;;;;;4954045;28;20517;-72
2021/12/15 01:20:43;;;;;;;11.38;7.90;;;;;;;;;;4953501;29;20034;-72
2021/12/15 01:23:12;;;;;;;11.63;7.57;;;;;;;;;;4953564;29;20027;-69
2021/12/15 01:25:40;;;;;;;8.75;6.93;;;;;;;;;;4953363;28;20443;-70
2021/12/15 01:28:07;;;;;;;10.90;7.55;;;;;;;;;;4953597;28;20035;-69
2021/12/15 01:30:35;;;;;;;11.05;7.43;;;;;;;;;;4953711;28;20496;-72
2021/12/15 01:33:03;;;;;;;10.98;6.95;;;;;;;;;;4953686;28;20027;-72
2021/12/15 01:35:30;;;;;;;10.50;7.55;;;;;;;;;;4952688;28;20043;-72
2021/12/15 01:37:57;;;;;;;9.30;6.35;;;;;;;;;;4952336;28;20028;-71
2021/12/15 01:40:33;;;;;;;12.70;7.25;;;;;;;;;;4953699;29;20031;-71
2021/12/15 01:43:13;;;;;;;11.65;7.18;;;;;;;;;;4952981;29;20390;-71
2021/12/15 01:48:24;;;;;;;10.63;8.10;;;;;;;;;;4952786;28;20398;-71
2021/12/15 01:50:51;;;;;;;9.48;7.32;;;;;;;;;;4953200;28;20035;-70
2021/12/15 01:53:17;;;;;;;9.50;6.55;;;;;;;;;;4952860;28;20110;-72
2021/12/15 01:55:43;;;;;;;8.13;6.57;;;;;;;;;;4951985;28;20097;-70
2021/12/15 01:58:09;;;;;;;7.68;6.00;;;;;;;;;;4951704;28;20120;-71
2021/12/15 02:00:38;;;;;;;10.32;7.45;;;;;;;;;;4953280;28;20034;-71
2021/12/15 02:03:04;;;;;;;12.15;6.55;;;;;;;;;;4952978;28;20020;-69
2021/12/15 02:05:32;;;;;;;8.70;6.20;;;;;;;;;;4951499;28;20027;-70
2021/12/15 02:08:00;;;;;;;12.90;6.35;;;;;;;;;;4953000;28;20406;-72
2021/12/15 02:10:29;;;;;;;8.45;5.97;;;;;;;;;;4953053;29;20382;-72
2021/12/15 02:12:56;;;;;;;16.45;8.30;;;;;;;;;;4952543;28;20054;-70
2021/12/15 02:15:25;;;;;;;10.45;6.05;;;;;;;;;;4952625;28;20067;-68
2021/12/15 02:17:51;;;;;;;7.53;6.05;;;;;;;;;;4952506;28;20723;-69
2021/12/15 02:20:18;;;;;;;9.82;6.43;;;;;;;;;;5063547;28;20028;-69
2021/12/15 02:22:45;;;;;;;9.90;6.68;;;;;;;;;;5073585;28;20048;-70
2021/12/15 02:25:13;;;;;;;12.52;8.60;;;;;;;;;;5073547;28;20074;-69
2021/12/15 02:27:40;;;;;;;11.43;6.60;;;;;;;;;;5072212;28;20055;-75
2021/12/15 02:30:41;;;;;;;10.23;7.32;;;;;;;;;;5073773;28;20017;-75
2021/12/15 02:33:37;;;;;;;9.98;7.30;;;;;;;;;;5072352;28;20021;-74
2021/12/15 02:38:42;;;;;;;9.32;6.57;;;;;;;;;;4972046;28;20034;-71
2021/12/15 02:41:19;;;;;;;6.68;5.55;;;;;;;;;;4972352;28;20091;-72
2021/12/15 02:43:46;;;;;;;9.13;6.75;;;;;;;;;;4971529;28;20115;-71
2021/12/15 02:46:12;;;;;;;10.00;6.72;;;;;;;;;;4971468;28;20027;-70
2021/12/15 02:48:38;;;;;;;9.98;6.78;;;;;;;;;;4971865;28;20050;-70
2021/12/15 02:51:04;;;;;;;12.65;7.57;;;;;;;;;;4962765;28;20015;-70
2021/12/15 02:53:30;;;;;;;10.90;6.85;;;;;;;;;;5038743;28;20458;-69
2021/12/15 02:55:56;;;;;;;11.20;7.53;;;;;;;;;;4974944;28;20037;-74
2021/12/15 02:58:23;;;;;;;9.20;7.00;;;;;;;;;;4975313;28;20019;-74
2021/12/15 03:01:02;;;;;;;8.57;6.55;;;;;;;;;;4975677;28;20031;-74
2021/12/15 03:06:23;;;;;;;11.93;7.45;;;;;;;;;;4975306;28;20038;-71
2021/12/15 03:09:10;;;;;;;11.80;7.07;;;;;;;;;;4975011;28;20054;-72
2021/12/15 03:17:06;;;;;;;9.55;6.90;;;;;;;;;;4974770;28;20212;-72
2021/12/15 03:19:32;;;;;;;10.35;6.70;;;;;;;;;;4974616;28;20109;-73
2021/12/15 03:21:58;;;;;;;10.07;6.03;;;;;;;;;;4973409;28;20375;-71
2021/12/15 03:24:25;;;;;;;11.65;6.70;;;;;;;;;;4978822;28;20480;-72
2021/12/15 03:26:59;;;;;;;10.07;6.95;;;;;;;;;;4993966;28;20159;-71
2021/12/15 03:37:26;;;;;;;14.45;7.57;;;;;;;;;;4955833;28;20076;-69
2021/12/15 03:40:07;;;;;;;13.48;7.53;;;;;;;;;;4955107;28;20398;-70
2021/12/15 03:43:03;;;;;;;9.52;6.70;;;;;;;;;;4955375;28;20106;-71
2021/12/15 03:45:36;;;;;;;12.00;7.25;;;;;;;;;;4972671;28;20073;-71
2021/12/15 03:48:04;;;;;;;9.75;6.85;;;;;;;;;;4972755;28;20031;-68
2021/12/15 03:50:30;;;;;;;11.18;6.25;;;;;;;;;;4967768;28;20160;-71
2021/12/15 03:52:56;;;;;;;12.20;7.03;;;;;;;;;;4955156;28;20042;-69
2021/12/15 03:55:25;;;;;;;12.35;6.82;;;;;;;;;;4954674;28;20035;-68
2021/12/15 03:57:52;;;;;;;13.15;6.88;;;;;;;;;;4955171;29;20471;-70
2021/12/15 04:00:18;;;;;;;9.82;6.25;;;;;;;;;;4955043;28;20093;-70
2021/12/15 04:02:45;;;;;;;14.57;6.32;;;;;;;;;;4953849;29;20020;-70
2021/12/15 04:05:14;;;;;;;10.27;6.55;;;;;;;;;;4954904;28;20028;-69
2021/12/15 04:07:40;;;;;;;9.80;6.45;;;;;;;;;;4954931;28;20028;-69
2021/12/15 04:10:07;;;;;;;18.02;6.35;;;;;;;;;;4955422;29;20110;-72
2021/12/15 04:12:33;;;;;;;17.13;6.53;;;;;;;;;;4954796;29;20067;-68
2021/12/15 04:15:26;;;;;;;12.88;6.30;;;;;;;;;;4954661;29;20043;-69
2021/12/15 04:17:54;;;;;;;10.30;5.55;;;;;;;;;;4954752;28;20042;-70
2021/12/15 04:20:21;;;;;;;8.63;5.95;;;;;;;;;;4954660;28;20035;-70
2021/12/15 04:22:47;;;;;;;7.35;5.30;;;;;;;;;;4954440;28;20055;-70
2021/12/15 04:25:16;;;;;;;10.98;6.25;;;;;;;;;;4953417;28;20102;-71
2021/12/15 04:27:51;;;;;;;12.20;5.35;;;;;;;;;;4954712;29;20035;-72
2021/12/15 04:30:17;;;;;;;8.55;5.55;;;;;;;;;;4954570;29;20070;-71
2021/12/15 04:32:46;;;;;;;10.68;6.20;;;;;;;;;;4937465;29;20073;-72
2021/12/15 04:35:14;;;;;;;14.02;6.18;;;;;;;;;;4954257;29;20035;-71
2021/12/15 04:37:43;;;;;;;7.60;5.50;;;;;;;;;;4954686;28;20015;-70
2021/12/15 04:40:11;;;;;;;9.43;5.53;;;;;;;;;;4954154;28;20058;-69
2021/12/15 04:42:38;;;;;;;12.60;5.65;;;;;;;;;;4953656;28;20027;-67
2021/12/15 04:45:06;;;;;;;9.55;5.28;;;;;;;;;;4954136;28;20066;-68
2021/12/15 04:47:32;;;;;;;9.82;5.63;;;;;;;;;;4953730;29;20042;-67
2021/12/15 04:49:58;;;;;;;8.20;5.18;;;;;;;;;;4953869;28;20027;-67
2021/12/15 04:52:27;;;;;;;9.38;5.68;;;;;;;;;;4954161;29;20034;-69
2021/12/15 04:54:54;;;;;;;12.00;5.43;;;;;;;;;;4953802;29;20037;-68
2021/12/15 04:57:20;;;;;;;10.02;5.53;;;;;;;;;;4954034;28;20023;-72
2021/12/15 04:59:48;;;;;;;9.07;5.10;;;;;;;;;;4953931;28;20092;-71
2021/12/15 05:02:16;;;;;;;11.65;5.55;;;;;;;;;;4952988;28;20034;-73
2021/12/15 05:04:43;;;;;;;9.18;4.97;;;;;;;;;;4952927;28;20027;-70
2021/12/15 05:07:09;;;;;;;9.10;5.13;;;;;;;;;;4960761;28;20034;-71
2021/12/15 05:09:35;;;;;;;11.05;5.70;;;;;;;;;;4972041;28;20062;-68
2021/12/15 05:12:01;;;;;;;6.60;5.00;;;;;;;;;;4971902;28;20360;-69
2021/12/15 05:14:28;;;;;;;10.80;5.15;;;;;;;;;;4971365;28;20051;-71
2021/12/15 05:16:54;;;;;;;9.40;4.60;;;;;;;;;;4972535;28;20100;-69
2021/12/15 05:19:21;;;;;;;10.25;5.13;;;;;;;;;;4972845;28;20101;-69
2021/12/15 05:21:50;;;;;;;7.65;4.82;;;;;;;;;;4973067;28;20022;-70
2021/12/15 05:24:30;;;;;;;12.57;5.18;;;;;;;;;;4971925;28;20109;-70
2021/12/15 05:27:02;;;;;;;7.53;5.07;;;;;;;;;;4971659;28;20023;-71
2021/12/15 05:29:29;;;;;;;7.88;5.05;;;;;;;;;;4980431;28;20642;-70
2021/12/15 05:31:55;;;;;;;7.25;4.90;;;;;;;;;;4991201;28;20115;-72
2021/12/15 05:34:22;;;;;;;11.63;5.40;;;;;;;;;;4992831;28;20030;-70
2021/12/15 05:36:50;;;;;;;11.15;5.40;;;;;;;;;;4991386;28;20026;-71
2021/12/15 05:39:16;;;;;;;10.52;5.63;;;;;;;;;;4992505;28;20379;-69
2021/12/15 05:41:49;;;;;;;12.68;4.88;;;;;;;;;;4992304;28;20027;-70
2021/12/15 05:44:15;;;;;;;10.85;5.38;;;;;;;;;;4991459;28;20028;-71
2021/12/15 05:46:42;;;;;;;7.15;4.68;;;;;;;;;;4992377;28;20033;-70
2021/12/15 05:49:08;;;;;;;9.05;5.35;;;;;;;;;;4989494;28;20125;-68
2021/12/15 05:51:34;;;;;;;11.45;5.55;;;;;;;;;;4973661;28;20459;-68
2021/12/15 05:54:00;;;;;;;20.10;5.10;;;;;;;;;;5073842;28;20392;-69
2021/12/15 05:56:27;;;;;;;17.45;6.03;;;;;;;;;;5073984;28;20028;-71
2021/12/15 05:58:53;;;;;;;19.52;5.30;;;;;;;;;;4973306;28;20038;-71
2021/12/15 06:01:19;;;;;;;38.60;5.90;;;;;;;;;;4953402;28;20485;-70
2021/12/15 06:03:45;;;;;;;20.65;5.45;;;;;;;;;;4967444;28;20066;-67
2021/12/15 06:06:11;;;;;;;26.85;6.53;;;;;;;;;;4971677;28;20031;-72
2021/12/15 06:08:37;;;;;;;56.58;6.55;;;;;;;;;;4965773;28;20031;-74
2021/12/15 06:11:04;;;;;;;57.92;7.13;;;;;;;;;;4967241;28;20020;-71
2021/12/15 06:13:30;;;;;;;39.20;6.88;;;;;;;;;;4955286;28;20062;-71
2021/12/15 06:15:57;;;;;;;41.38;6.78;;;;;;;;;;4952747;28;20060;-71
2021/12/15 06:18:24;;;;;;;30.45;6.72;;;;;;;;;;4952977;29;20031;-69
2021/12/15 06:20:51;;;;;;;18.73;6.55;;;;;;;;;;4954036;29;20055;-71
2021/12/15 06:23:19;;;;;;;13.85;5.85;;;;;;;;;;4952789;28;20031;-68
2021/12/15 06:25:47;;;;;;;25.52;6.80;;;;;;;;;;4952615;29;20356;-68
2021/12/15 06:28:13;;;;;;;21.42;6.82;;;;;;;;;;4951442;28;20463;-68
2021/12/15 06:30:39;;;;;;;36.67;7.32;;;;;;;;;;4976379;28;20035;-69
2021/12/15 06:33:06;;;;;;;20.23;7.40;;;;;;;;;;4971780;28;20395;-70
2021/12/15 06:35:33;;;;;;;20.08;7.25;;;;;;;;;;4985625;28;20042;-68
2021/12/15 06:37:59;;;;;;;26.83;8.25;;;;;;;;;;4968079;28;20122;-69
2021/12/15 06:40:25;;;;;;;24.38;7.60;;;;;;;;;;4968739;28;20065;-68
2021/12/15 06:42:51;;;;;;;18.13;7.60;;;;;;;;;;4960893;28;20043;-69
2021/12/15 06:45:21;;;;;;;16.30;7.35;;;;;;;;;;4952407;28;20195;-71
2021/12/15 06:58:46;;;;;;;19.90;6.95;;;;;;;;;;5072594;28;20039;-66
2021/12/15 07:01:13;;;;;;;15.13;7.75;;;;;;;;;;5072735;28;20033;-68
2021/12/15 07:03:39;;;;;;;14.55;6.93;;;;;;;;;;5072731;28;20020;-66
2021/12/15 07:06:05;;;;;;;18.58;7.15;;;;;;;;;;5072484;28;20017;-67
2021/12/15 07:08:31;;;;;;;19.13;7.60;;;;;;;;;;5072696;28;20107;-64
2021/12/15 07:10:58;;;;;;;13.88;6.70;;;;;;;;;;5072416;28;20148;-64
2021/12/15 07:13:25;;;;;;;16.27;7.63;;;;;;;;;;5072296;28;20063;-64
2021/12/15 07:15:59;;;;;;;15.32;7.00;;;;;;;;;;5040763;28;20749;-64
2021/12/15 07:18:36;;;;;;;18.58;6.90;;;;;;;;;;4969349;28;20100;-64
2021/12/15 07:21:07;;;;;;;15.63;7.70;;;;;;;;;;5072358;28;20460;-64
2021/12/15 07:23:33;;;;;;;11.57;6.50;;;;;;;;;;5072599;28;20458;-67
2021/12/15 07:25:59;;;;;;;41.55;7.35;;;;;;;;;;5073298;28;20464;-65
2021/12/15 07:28:25;;;;;;;22.92;7.47;;;;;;;;;;5072302;28;20031;-66
2021/12/15 07:30:51;;;;;;;30.90;7.35;;;;;;;;;;5072548;28;20456;-63
2021/12/15 07:33:17;;;;;;;25.13;6.88;;;;;;;;;;5072360;28;20452;-65
2021/12/15 07:35:43;;;;;;;25.35;8.05;;;;;;;;;;5072535;28;20073;-65
2021/12/15 07:38:09;;;;;;;23.20;8.10;;;;;;;;;;5071103;28;20020;-65
2021/12/15 07:40:37;;;;;;;21.27;8.68;;;;;;;;;;5073713;28;20031;-66
2021/12/15 07:45:32;;;;;;;18.45;8.02;;;;;;;;;;4969001;28;20061;-65
2021/12/15 07:48:01;;;;;;;14.45;7.38;;;;;;;;;;4966568;28;20394;-64
2021/12/15 07:50:27;;;;;;;13.27;8.30;;;;;;;;;;4954757;28;20023;-64
2021/12/15 07:52:54;;;;;;;16.60;9.98;;;;;;;;;;5032570;28;20136;-65
2021/12/15 07:55:20;;;;;;;13.00;9.38;;;;;;;;;;5075641;28;20047;-65
2021/12/15 07:57:47;;;;;;;17.42;9.07;;;;;;;;;;5075719;28;20033;-65
2021/12/15 08:00:13;;;;;;;16.42;9.75;;;;;;;;;;5075743;28;20052;-67
2021/12/15 08:02:39;;;;;;;16.75;9.00;;;;;;;;;;5075759;28;20096;-69
2021/12/15 08:05:06;;;;;;;21.13;9.15;;;;;;;;;;5075775;28;20128;-69
2021/12/15 08:07:32;;;;;;;15.88;9.30;;;;;;;;;;5075884;28;20020;-68
2021/12/15 08:09:58;;;;;;;16.30;9.15;;;;;;;;;;5076015;28;20027;-67
2021/12/15 08:12:26;;;;;;;15.82;8.80;;;;;;;;;;5075544;28;20392;-69
2021/12/15 08:14:52;;;;;;;14.27;9.23;;;;;;;;;;5074446;28;20400;-68
2021/12/15 08:17:20;;;;;;;17.13;8.95;;;;;;;;;;5075641;28;20453;-69
2021/12/15 08:19:46;;;;;;;15.27;8.52;;;;;;;;;;5004162;28;20443;-68
2021/12/15 08:22:12;;;;;;;11.98;7.75;;;;;;;;;;4972371;28;20122;-68
2021/12/15 08:24:38;;;;;;;16.48;8.20;;;;;;;;;;4973644;28;20110;-69
2021/12/15 08:27:04;;;;;;;17.35;8.27;;;;;;;;;;4972081;28;20019;-67
2021/12/15 08:29:30;;;;;;;15.05;9.55;;;;;;;;;;4973725;28;20058;-69
2021/12/15 08:31:56;;;;;;;20.67;9.43;;;;;;;;;;4973638;28;20066;-67
2021/12/15 08:34:22;;;;;;;16.00;9.15;;;;;;;;;;4973474;28;20031;-68
2021/12/15 08:36:49;;;;;;;16.33;9.43;;;;;;;;;;4973301;28;20041;-67
2021/12/15 08:39:16;;;;;;;19.27;9.52;;;;;;;;;;4973409;28;20056;-68
2021/12/15 08:41:43;;;;;;;19.15;10.15;;;;;;;;;;4973503;28;20054;-68
2021/12/15 08:44:10;;;;;;;21.30;10.60;;;;;;;;;;4973017;28;20106;-68
2021/12/15 08:46:39;;;;;;;25.92;10.13;;;;;;;;;;4973554;28;20023;-68
2021/12/15 08:49:05;;;;;;;24.42;10.98;;;;;;;;;;4973169;28;20054;-68
2021/12/15 08:51:31;;;;;;;20.75;10.20;;;;;;;;;;4981413;28;20027;-68
2021/12/15 08:53:59;;;;;;;19.05;10.13;;;;;;;;;;5074700;28;20472;-65
2021/12/15 08:56:25;;;;;;;22.35;10.32;;;;;;;;;;5074984;28;20069;-67
2021/12/15 08:58:53;;;;;;;19.80;10.60;;;;;;;;;;5074856;28;20020;-68
2021/12/15 09:01:19;;;;;;;19.85;10.85;;;;;;;;;;5074775;28;20031;-68
2021/12/15 09:03:45;;;;;;;23.52;12.00;;;;;;;;;;5073313;28;20032;-67
2021/12/15 09:06:11;;;;;;;18.15;10.40;;;;;;;;;;5074822;28;20025;-68
2021/12/15 09:08:37;;;;;;;20.80;10.13;;;;;;;;;;5074372;28;20049;-68
2021/12/15 09:11:08;;;;;;;18.05;9.40;;;;;;;;;;5074624;28;20460;-67
2021/12/15 09:13:34;;;;;;;15.32;8.45;;;;;;;;;;5072940;28;20539;-68
2021/12/15 09:16:02;;;;;;;15.80;8.20;;;;;;;;;;5074487;28;20438;-67
2021/12/15 09:18:28;;;;;;;18.88;8.57;;;;;;;;;;5074340;28;20028;-67
2021/12/15 09:20:54;;;;;;;16.70;8.32;;;;;;;;;;5074340;28;20021;-64
2021/12/15 09:23:20;;;;;;;13.05;8.10;;;;;;;;;;5072589;28;20102;-66
2021/12/15 09:25:46;;;;;;;14.23;7.78;;;;;;;;;;5073952;28;20091;-65
2021/12/15 09:28:12;;;;;;;14.27;7.38;;;;;;;;;;5073987;28;20024;-66
2021/12/15 09:30:44;;;;;;;13.55;6.90;;;;;;;;;;5073981;28;20025;-66
2021/12/15 09:33:14;;;;;;;16.50;6.68;;;;;;;;;;5072768;28;20384;-66
2021/12/15 09:35:41;;;;;;;13.60;6.82;;;;;;;;;;5072723;28;20509;-64
2021/12/15 09:38:07;;;;;;;13.13;7.13;;;;;;;;;;5073739;28;20035;-64
2021/12/15 09:40:33;;;;;;;14.55;5.65;;;;;;;;;;5073940;28;20137;-69
2021/12/15 09:43:00;;;;;;;21.17;6.55;;;;;;;;;;5073774;28;20032;-67
2021/12/15 09:45:38;;;;;;;11.52;5.30;;;;;;;;;;5073738;28;20036;-68
2021/12/15 10:18:16;;;;;;;13.57;4.72;;;;;;;;;;5110333;28;20169;-60
2021/12/15 10:20:43;;;;;;;13.02;5.07;;;;;;;;;;5110530;28;20031;-61
2021/12/15 10:23:12;;;;;;;11.70;4.88;;;;;;;;;;5109163;28;20039;-62
2021/12/15 10:25:43;;;;;;;13.93;4.63;;;;;;;;;;5110215;28;20452;-64
2021/12/15 10:28:13;;;;;;;12.60;5.28;;;;;;;;;;5110413;28;20016;-61
2021/12/15 10:30:44;;;;;;;12.68;4.68;;;;;;;;;;5110272;28;20058;-61
2021/12/15 10:33:19;;;;;;;10.82;4.50;;;;;;;;;;5110542;28;20093;-61
2021/12/15 10:35:47;;;;;;;12.73;4.43;;;;;;;;;;5110630;28;20028;-61
2021/12/15 10:38:17;;;;;;;9.38;4.38;;;;;;;;;;5110305;28;20028;-60
2021/12/15 10:41:02;;;;;;;12.07;4.38;;;;;;;;;;5109065;28;20031;-61
2021/12/15 10:43:48;;;;;;;10.73;4.15;;;;;;;;;;5110004;28;20034;-62
2021/12/15 10:46:16;;;;;;;14.15;4.30;;;;;;;;;;5110377;28;20044;-61
2021/12/15 10:48:45;;;;;;;14.60;3.97;;;;;;;;;;5110314;28;20024;-61
2021/12/15 10:51:22;;;;;;;9.77;4.00;;;;;;;;;;5108782;28;20093;-61
2021/12/15 10:53:48;;;;;;;7.10;3.58;;;;;;;;;;5109871;28;20028;-61
2021/12/15 10:56:16;;;;;;;16.17;4.07;;;;;;;;;;5109860;28;20370;-61
2021/12/15 10:58:44;;;;;;;8.40;3.17;;;;;;;;;;5110191;28;20380;-61
2021/12/15 11:01:29;;;;;;;9.98;3.83;;;;;;;;;;5110053;28;20035;-62
2021/12/15 11:03:55;;;;;;;11.60;3.33;;;;;;;;;;5109907;28;20073;-61
2021/12/15 11:06:22;;;;;;;8.70;3.60;;;;;;;;;;5109921;28;20110;-61
2021/12/15 11:08:48;;;;;;;9.52;3.05;;;;;;;;;;5109725;28;20070;-65
2021/12/15 11:11:27;;;;;;;7.93;3.13;;;;;;;;;;5108177;28;20483;-60
2021/12/15 11:13:53;;;;;;;7.70;3.20;;;;;;;;;;5109649;28;20107;-60
2021/12/15 11:16:27;;;;;;;11.48;3.50;;;;;;;;;;5110010;28;20161;-61
2021/12/15 11:18:53;;;;;;;9.40;2.85;;;;;;;;;;5109979;28;20016;-59
2021/12/15 11:21:20;;;;;;;8.35;2.95;;;;;;;;;;5109560;28;20039;-60
2021/12/15 11:23:46;;;;;;;6.93;2.95;;;;;;;;;;5097839;28;20031;-59
2021/12/15 11:26:13;;;;;;;6.70;2.72;;;;;;;;;;5096109;28;20082;-59
2021/12/15 11:28:41;;;;;;;9.43;3.22;;;;;;;;;;5096033;28;20073;-60
2021/12/15 11:31:09;;;;;;;10.98;3.13;;;;;;;;;;5095742;28;20036;-59
2021/12/15 11:33:41;;;;;;;8.27;3.20;;;;;;;;;;5095807;28;20051;-60
2021/12/15 11:36:16;;;;;;;8.27;2.90;;;;;;;;;;5095638;28;20538;-61
2021/12/15 11:38:53;;;;;;;7.88;2.22;;;;;;;;;;5095722;28;20057;-62
2021/12/15 11:41:22;;;;;;;7.60;2.42;;;;;;;;;;5094406;28;20024;-64
2021/12/15 11:43:50;;;;;;;6.78;2.58;;;;;;;;;;5095429;28;20032;-61
2021/12/15 11:46:19;;;;;;;8.13;2.42;;;;;;;;;;5094082;28;20456;-61
2021/12/15 11:48:53;;;;;;;13.40;2.53;;;;;;;;;;5095525;28;20418;-60
2021/12/15 11:51:39;;;;;;;10.68;2.63;;;;;;;;;;5093926;28;20516;-61
2021/12/15 11:54:12;;;;;;;5.43;2.30;;;;;;;;;;5095725;28;20478;-62
2021/12/15 11:56:38;;;;;;;7.10;2.25;;;;;;;;;;5095372;28;20364;-64
2021/12/15 11:59:16;;;;;;;10.35;2.75;;;;;;;;;;5095058;28;20024;-61
2021/12/15 12:02:02;;;;;;;10.63;2.45;;;;;;;;;;5093921;28;20038;-62
2021/12/15 12:04:31;;;;;;;6.20;1.83;;;;;;;;;;5095232;28;20016;-61
2021/12/15 12:07:10;;;;;;;9.52;2.20;;;;;;;;;;5095260;28;20028;-61
2021/12/15 12:09:38;;;;;;;5.50;1.80;;;;;;;;;;5095123;28;20016;-60
2021/12/15 12:12:06;;;;;;;6.32;2.03;;;;;;;;;;5109584;28;20547;-59
2021/12/15 12:14:41;;;;;;;5.95;1.90;;;;;;;;;;5115387;28;20031;-60
2021/12/15 12:17:12;;;;;;;8.55;2.17;;;;;;;;;;5115454;28;20559;-61
2021/12/15 12:19:40;;;;;;;6.55;2.15;;;;;;;;;;5047906;28;20109;-61
2021/12/15 12:22:06;;;;;;;3.80;1.70;;;;;;;;;;5011855;28;20019;-60
2021/12/15 12:24:34;;;;;;;9.73;2.00;;;;;;;;;;5011593;28;20033;-61
2021/12/15 12:27:00;;;;;;;8.43;2.00;;;;;;;;;;5011735;28;20026;-61
2021/12/15 12:29:26;;;;;;;6.20;1.50;;;;;;;;;;5011886;28;20022;-61
2021/12/15 12:31:52;;;;;;;6.10;1.88;;;;;;;;;;5011670;28;20443;-60
2021/12/15 12:34:18;;;;;;;7.82;2.08;;;;;;;;;;5010426;28;20022;-60
2021/12/15 12:36:45;;;;;;;10.55;1.70;;;;;;;;;;5011727;28;20071;-60
2021/12/15 12:39:11;;;;;;;6.40;1.92;;;;;;;;;;5011407;28;20049;-61
2021/12/15 12:41:41;;;;;;;8.18;2.03;;;;;;;;;;5011618;28;20528;-60
2021/12/15 12:44:10;;;;;;;5.38;1.70;;;;;;;;;;5011609;28;20022;-60
2021/12/15 12:46:44;;;;;;;10.90;2.22;;;;;;;;;;5011491;28;20026;-63
2021/12/15 13:00:07;;;;;;;8.82;2.08;;;;;;;;;;5114567;28;20026;-59
2021/12/15 13:02:45;;;;;;;7.68;2.15;;;;;;;;;;5114253;28;20031;-59
2021/12/15 13:05:34;;;;;;;6.13;2.42;;;;;;;;;;5114242;28;20378;-60
2021/12/15 13:08:02;;;;;;;7.53;2.17;;;;;;;;;;5085222;28;20032;-62
2021/12/15 13:10:50;;;;;;;8.20;1.90;;;;;;;;;;5095611;28;20027;-59
2021/12/15 13:13:18;;;;;;;7.15;2.40;;;;;;;;;;5113876;28;20027;-60
2021/12/15 13:15:51;;;;;;;7.93;2.33;;;;;;;;;;5114049;28;20023;-60
2021/12/15 13:18:17;;;;;;;9.23;2.22;;;;;;;;;;5104927;28;20062;-61
2021/12/15 13:20:52;;;;;;;8.80;3.05;;;;;;;;;;5010899;28;20579;-62
2021/12/15 13:23:39;;;;;;;9.80;3.03;;;;;;;;;;5010719;28;20036;-63
2021/12/15 13:28:51;;;;;;;10.00;3.55;;;;;;;;;;5010665;28;20041;-60
2021/12/15 13:31:19;;;;;;;9.95;2.95;;;;;;;;;;5010606;28;20041;-60
2021/12/15 13:33:57;;;;;;;7.80;3.15;;;;;;;;;;5010883;28;20039;-60
2021/12/15 13:36:23;;;;;;;7.82;2.78;;;;;;;;;;5009633;28;20083;-59
2021/12/15 13:38:52;;;;;;;9.23;3.33;;;;;;;;;;5009229;28;20028;-60
2021/12/15 13:44:23;;;;;;;8.63;3.25;;;;;;;;;;5010949;28;20030;-59
2021/12/15 13:46:54;;;;;;;9.68;3.10;;;;;;;;;;5008928;28;20091;-60
2021/12/15 13:49:23;;;;;;;10.48;3.75;;;;;;;;;;5010520;28;20041;-61
2021/12/15 13:51:58;;;;;;;7.13;3.42;;;;;;;;;;5032402;28;20031;-59
2021/12/15 13:54:24;;;;;;;13.98;3.75;;;;;;;;;;5113743;28;20023;-59
2021/12/15 13:56:52;;;;;;;13.50;4.13;;;;;;;;;;5095260;28;20364;-60
2021/12/15 13:59:28;;;;;;;11.68;3.40;;;;;;;;;;5113560;28;20034;-61
2021/12/15 14:02:10;;;;;;;9.98;4.47;;;;;;;;;;5113356;28;20055;-60
2021/12/15 14:04:47;;;;;;;14.77;4.00;;;;;;;;;;5113538;28;20098;-60
2021/12/15 14:07:45;;;;;;;13.73;4.32;;;;;;;;;;5113195;28;20028;-59
2021/12/15 14:10:12;;;;;;;10.18;3.42;;;;;;;;;;5079171;28;20536;-59
2021/12/15 14:12:47;;;;;;;14.00;4.20;;;;;;;;;;5113081;28;20556;-59
2021/12/15 14:15:13;;;;;;;17.52;4.50;;;;;;;;;;5113117;28;20081;-60
2021/12/15 14:17:39;;;;;;;14.77;4.00;;;;;;;;;;5113280;28;20464;-59
2021/12/15 14:20:12;;;;;;;10.30;3.92;;;;;;;;;;5026957;28;20469;-59
2021/12/15 14:22:38;;;;;;;15.73;4.95;;;;;;;;;;5009994;28;20034;-59
2021/12/15 14:25:04;;;;;;;12.88;4.63;;;;;;;;;;5010085;28;20091;-60
2021/12/15 14:27:31;;;;;;;11.88;4.57;;;;;;;;;;5009813;28;20076;-60
2021/12/15 14:29:57;;;;;;;15.45;4.90;;;;;;;;;;5008702;28;20023;-60
2021/12/15 14:32:27;;;;;;;10.98;4.53;;;;;;;;;;5010063;28;20034;-60
2021/12/15 14:34:55;;;;;;;11.95;4.68;;;;;;;;;;5009986;28;20032;-60
2021/12/15 14:37:22;;;;;;;12.30;4.70;;;;;;;;;;5009980;28;20485;-60
2021/12/15 14:39:49;;;;;;;14.35;4.65;;;;;;;;;;5009822;28;20059;-61
2021/12/15 14:42:17;;;;;;;14.68;4.93;;;;;;;;;;5010264;28;20022;-59
2021/12/15 14:44:45;;;;;;;11.60;4.60;;;;;;;;;;5008578;28;20420;-59
2021/12/15 14:47:12;;;;;;;13.00;4.55;;;;;;;;;;5009817;28;20026;-61
2021/12/15 14:49:43;;;;;;;11.38;4.60;;;;;;;;;;5009618;28;20030;-60
2021/12/15 14:52:15;;;;;;;10.07;4.38;;;;;;;;;;5008098;28;20038;-59
2021/12/15 14:54:42;;;;;;;10.70;4.03;;;;;;;;;;5008341;28;20383;-61
2021/12/15 14:57:10;;;;;;;13.45;4.70;;;;;;;;;;5009649;28;20038;-60
2021/12/15 14:59:36;;;;;;;15.18;4.78;;;;;;;;;;5012978;28;20033;-60
2021/12/15 15:02:11;;;;;;;12.90;3.83;;;;;;;;;;5012880;28;20034;-60
2021/12/15 15:04:39;;;;;;;10.82;4.20;;;;;;;;;;5013127;28;20473;-60
2021/12/15 15:07:07;;;;;;;14.00;4.97;;;;;;;;;;5012836;28;20034;-59
2021/12/15 15:09:37;;;;;;;13.07;4.20;;;;;;;;;;5013006;28;20109;-59
2021/12/15 15:12:08;;;;;;;19.70;4.72;;;;;;;;;;5012815;28;20046;-61
2021/12/15 15:14:34;;;;;;;14.00;3.88;;;;;;;;;;5012852;28;20022;-58
2021/12/15 15:17:00;;;;;;;12.68;4.18;;;;;;;;;;5012604;28;20037;-59
2021/12/15 15:19:28;;;;;;;12.07;4.10;;;;;;;;;;5071339;28;20031;-59
2021/12/15 15:21:56;;;;;;;10.35;4.22;;;;;;;;;;5115967;28;20027;-60
2021/12/15 15:24:26;;;;;;;10.93;3.67;;;;;;;;;;5116171;28;20110;-59
2021/12/15 15:26:56;;;;;;;11.80;4.00;;;;;;;;;;5097841;28;20028;-60
2021/12/15 15:29:35;;;;;;;13.75;4.68;;;;;;;;;;5116255;28;20505;-59
2021/12/15 15:32:13;;;;;;;11.05;4.28;;;;;;;;;;5115917;28;20468;-60
2021/12/15 15:34:39;;;;;;;8.95;4.07;;;;;;;;;;5097999;28;20051;-59
2021/12/15 15:37:17;;;;;;;9.93;3.60;;;;;;;;;;5115955;28;20031;-59
2021/12/15 15:39:44;;;;;;;15.95;4.30;;;;;;;;;;5097555;28;20019;-59
2021/12/15 15:42:19;;;;;;;16.60;4.28;;;;;;;;;;5116065;28;20027;-61
2021/12/15 15:44:45;;;;;;;10.70;3.75;;;;;;;;;;5116104;28;20479;-60
2021/12/15 15:47:15;;;;;;;7.38;3.60;;;;;;;;;;5115814;28;20455;-59
2021/12/15 15:49:47;;;;;;;14.38;4.07;;;;;;;;;;5115953;28;20149;-60
2021/12/15 15:52:13;;;;;;;12.98;4.18;;;;;;;;;;5076856;28;20058;-61
2021/12/15 15:54:39;;;;;;;14.73;3.97;;;;;;;;;;5012204;28;20026;-59
2021/12/15 15:57:06;;;;;;;7.88;3.42;;;;;;;;;;5012414;28;20075;-59
2021/12/15 15:59:32;;;;;;;10.02;3.97;;;;;;;;;;5011962;28;20026;-59
2021/12/15 16:02:00;;;;;;;12.38;3.63;;;;;;;;;;5012072;28;20042;-60
2021/12/15 16:04:27;;;;;;;9.50;3.15;;;;;;;;;;5012441;28;20103;-60
2021/12/15 16:06:53;;;;;;;9.98;3.30;;;;;;;;;;5012034;28;20026;-63
2021/12/15 16:09:27;;;;;;;7.30;2.92;;;;;;;;;;5012099;28;20025;-60
2021/12/15 16:11:54;;;;;;;7.90;3.03;;;;;;;;;;5011995;28;20061;-59